Skip Navigation LinksHome page > Weather > Current weather Skip Navigation Links

Current Weather

Indira Gandhi Intl Apt, New Delhi, India

For information only: do not use for flight planning or navigation.
Latest weather
Observation time Tuesday, October 21, 2014 3:30 AM IST
Local time Tuesday, October 21, 2014 4:17 AM IST
Flight conditions Low Instrument Meteorological Conditions
Winds
Wind speed calm
Visibility 0.7 mi.
Present weather mist
Sky condition
Ceiling unlimited
Temperature 68°F
Dewpoint 63°F
Altimeter 29.94 in.Hg
Derived measurements
Relative humidity 83%
Density altitude 1590 ft.
Remarks
No significant changes expected in the next two hours.
METAR VIDP 202200Z 00000KT 1100 R28/P2000 R29/P2000 BR NSC 20/17 Q1014 NOSIG

Settings

Location code

InnerDrive.Weather 4.0.5399.0 Release CLR 4.0.30319.34014
Copyright ©2014 Inner Drive Technology. All rights reserved. Portions Copyright ©1986-2014 David Braverman.

Find weather

Site navigation


Skip Navigation Links

Place info

Page info

PayPal - The safer, easier way to pay online!

Return home.

Copyright ©2014 Inner Drive Technology. Purveyors of fine, hand-crafted computer software. Page printed 2014-10-20T22:47:38 UTC.